Marstein — LAQN — position and weather

sailwx.info

Track history (hours):
 
Tides and Currents Weather Stations Pressure Air Temp Water Temp Dewpoint Dewpoint Depression Visibility Wind Speed Wind Dir Waves Ship Positions

Marstein

Last reported at 2015-Sep-04 12:24 UTC. Time now 2016-Feb-09 11:53 UTC.
Position N 59°60' E 005°19'.
Warning: this ship's position is months out of date.

Length 87 m; draft 4.7 m.

Type: Passenger vessel. MMSI: 257317400.

Date/timePositionNaut miles runAvg speedWind from/ knotsBaromVisibWave heightAir tempDewpointWater temp
2015-Sep-04 12:24N 59°60' E 005°19'0 0.2
2015-Sep-04 11:26N 59°60' E 005°19'0 0.2
2015-Sep-04 08:31N 59°59' E 005°19'0 0.0
2015-Sep-04 07:15N 59°59' E 005°19'1 0.5
2015-Sep-04 05:27N 59°60' E 005°19'0 0.1
2015-Sep-04 04:28N 59°60' E 005°19'0 0.0
2015-Sep-02 12:26N 59°60' E 005°19'0 0.3
2015-Sep-02 11:27N 59°59' E 005°19'0 0.4
2015-Sep-02 10:26N 59°60' E 005°19'0 0.2
2015-Sep-02 08:29N 59°59' E 005°19'0 0.3
2015-Sep-02 07:14N 59°59' E 005°19'1 0.3
2015-Sep-02 04:28N 59°60' E 005°19'0 0.0
2015-Sep-01 17:31N 59°59' E 005°19'0 0.2
2015-Sep-01 15:29N 59°59' E 005°19'0 0.3
2015-Sep-01 14:28N 59°59' E 005°19'0 0.4
2015-Sep-01 13:27N 59°60' E 005°19'0 0.0
2015-Sep-01 11:26N 59°60' E 005°19'1 0.6
2015-Sep-01 10:29N 59°59' E 005°19'0 0.0
2015-Sep-01 07:17N 59°59' E 005°19'0 0.0
2015-Sep-01 05:23N 59°59' E 005°19'0 0.5
2015-Sep-01 04:27N 59°60' E 005°19'0 0.0
2015-Aug-31 17:28N 59°59' E 005°19'0 0.0
2015-Aug-31 05:25N 59°60' E 005°19'  
2015-Aug-28 04:27N 59°60' E 005°19'1 0.1
2015-Aug-27 13:29N 59°59' E 005°19'1 0.0
2015-Aug-26 05:26N 59°60' E 005°19'0 0.0
2015-Aug-25 15:26N 59°60' E 005°19'1 0.6
2015-Aug-25 14:29N 59°59' E 005°19'0 0.0
2015-Aug-25 12:29N 59°59' E 005°19'  
Track history (hours):
 
Tides and Currents Weather Stations Pressure Air Temp Water Temp Dewpoint Dewpoint Depression Visibility Wind Speed Wind Dir Waves Ship Positions

Marstein

Last reported at 2015-Sep-04 12:24 UTC. Time now 2016-Feb-09 11:53 UTC.
Position N 59°60' E 005°19'.
Warning: this ship's position is months out of date.

Length 87 m; draft 4.7 m.

Type: Passenger vessel. MMSI: 257317400.

Date/timePositionNaut miles runAvg speedWind from/ knotsBaromVisibWave heightAir tempDewpointWater temp
2015-Sep-04 12:24N 59°60' E 005°19'0 0.2
2015-Sep-04 11:26N 59°60' E 005°19'0 0.2
2015-Sep-04 08:31N 59°59' E 005°19'0 0.0
2015-Sep-04 07:15N 59°59' E 005°19'1 0.5
2015-Sep-04 05:27N 59°60' E 005°19'0 0.1
2015-Sep-04 04:28N 59°60' E 005°19'0 0.0
2015-Sep-02 12:26N 59°60' E 005°19'0 0.3
2015-Sep-02 11:27N 59°59' E 005°19'0 0.4
2015-Sep-02 10:26N 59°60' E 005°19'0 0.2
2015-Sep-02 08:29N 59°59' E 005°19'0 0.3
2015-Sep-02 07:14N 59°59' E 005°19'1 0.3
2015-Sep-02 04:28N 59°60' E 005°19'0 0.0
2015-Sep-01 17:31N 59°59' E 005°19'0 0.2
2015-Sep-01 15:29N 59°59' E 005°19'0 0.3
2015-Sep-01 14:28N 59°59' E 005°19'0 0.4
2015-Sep-01 13:27N 59°60' E 005°19'0 0.0
2015-Sep-01 11:26N 59°60' E 005°19'1 0.6
2015-Sep-01 10:29N 59°59' E 005°19'0 0.0
2015-Sep-01 07:17N 59°59' E 005°19'0 0.0
2015-Sep-01 05:23N 59°59' E 005°19'0 0.5
2015-Sep-01 04:27N 59°60' E 005°19'0 0.0
2015-Aug-31 17:28N 59°59' E 005°19'0 0.0
2015-Aug-31 05:25N 59°60' E 005°19'  
2015-Aug-28 04:27N 59°60' E 005°19'1 0.1
2015-Aug-27 13:29N 59°59' E 005°19'1 0.0
2015-Aug-26 05:26N 59°60' E 005°19'0 0.0
2015-Aug-25 15:26N 59°60' E 005°19'1 0.6
2015-Aug-25 14:29N 59°59' E 005°19'0 0.0
2015-Aug-25 12:29N 59°59' E 005°19'  

Dump ship's entire track history